Time;durP1;ratioP1;P1;durP2;ratioP2;P2;SDS_P1;SDS_P2;PMS_P1;PMS_P2;Temp;Humidity;BMP_temperature;BMP_pressure;BME280_temperature;BME280_humidity;BME280_pressure;Samples;Min_cycle;Max_cycle;Signal;HPM_P1;HPM_P2
2024/01/18 00:01:01;;;;;;;14.35;7.55;;;;;;;22.51;40.62;98013.94;2082489;28;20089;-64
2024/01/18 00:02:03;;;;;;;14.57;6.75;;;;;;;22.50;40.53;98018.66;2090263;28;20052;-64
2024/01/18 00:03:08;;;;;;;16.95;7.57;;;;;;;22.52;40.10;98018.25;2082527;28;20038;-64
2024/01/18 00:04:09;;;;;;;15.30;7.15;;;;;;;22.51;40.44;98019.41;2082683;28;20158;-64
2024/01/18 00:05:14;;;;;;;13.88;6.90;;;;;;;22.51;40.55;98013.94;2082820;28;20042;-64
2024/01/18 00:06:16;;;;;;;11.80;6.90;;;;;;;22.51;40.50;98017.47;2073556;28;20043;-64
2024/01/18 00:07:17;;;;;;;16.40;7.47;;;;;;;22.51;40.48;98020.22;2082657;28;20776;-64
2024/01/18 00:08:19;;;;;;;17.00;7.10;;;;;;;22.51;40.54;98017.47;2089967;28;20044;-64
2024/01/18 00:09:22;;;;;;;12.27;6.63;;;;;;;22.52;40.61;98021.00;2074272;28;20038;-63
2024/01/18 00:10:27;;;;;;;15.63;7.00;;;;;;;22.51;40.55;98031.16;2074362;28;20865;-63
2024/01/18 00:11:28;;;;;;;17.50;6.97;;;;;;;22.52;40.58;98018.25;2083494;28;20139;-64
2024/01/18 00:12:30;;;;;;;16.02;7.65;;;;;;;22.51;40.56;98020.22;2081852;28;20042;-64
2024/01/18 00:13:32;;;;;;;14.65;7.75;;;;;;;22.51;40.44;98003.78;2074833;28;20120;-65
2024/01/18 00:14:33;;;;;;;14.18;6.88;;;;;;;22.51;40.53;98000.25;2073191;28;20164;-65
2024/01/18 00:15:35;;;;;;;14.10;7.32;;;;;;;22.52;40.46;98005.31;2074147;28;20045;-66
2024/01/18 00:16:37;;;;;;;15.57;7.40;;;;;;;22.52;40.63;98007.28;2081475;28;20850;-66
2024/01/18 00:17:39;;;;;;;14.98;7.60;;;;;;;22.52;40.55;98012.78;2090727;28;20033;-65
2024/01/18 00:18:41;;;;;;;15.65;7.18;;;;;;;22.53;40.50;98006.09;2098252;28;21351;-65
2024/01/18 00:19:43;;;;;;;15.13;7.15;;;;;;;22.52;40.62;98010.81;2082071;28;20120;-66
2024/01/18 00:20:44;;;;;;;13.63;6.75;;;;;;;22.52;40.59;98021.00;2065807;28;20198;-65
2024/01/18 00:21:45;;;;;;;14.10;7.00;;;;;;;22.52;40.53;98010.81;2090683;28;20130;-66
2024/01/18 00:22:47;;;;;;;15.27;7.13;;;;;;;22.53;40.47;98019.78;2099269;28;20040;-66
2024/01/18 00:23:49;;;;;;;16.33;9.13;;;;;;;22.49;39.86;98010.88;2090388;28;20029;-67
2024/01/18 00:24:51;;;;;;;19.25;9.80;;;;;;;22.49;38.99;98019.09;2090582;28;20653;-67
2024/01/18 00:25:53;;;;;;;19.80;10.13;;;;;;;22.46;38.37;98019.94;2090426;28;20136;-66
2024/01/18 00:27:00;;;;;;;20.23;10.55;;;;;;;22.41;37.95;98024.69;2090836;28;20049;-65
2024/01/18 00:28:02;;;;;;;17.77;10.30;;;;;;;22.36;37.61;98022.44;2098942;28;20107;-67
2024/01/18 00:29:04;;;;;;;19.25;9.77;;;;;;;22.30;37.25;98021.38;2082219;28;20080;-67
2024/01/18 00:30:08;;;;;;;21.00;10.73;;;;;;;22.24;36.88;98017.56;2090422;28;20145;-67
2024/01/18 00:31:09;;;;;;;19.38;11.57;;;;;;;22.18;36.63;98013.78;2090655;28;20036;-67
2024/01/18 00:32:11;;;;;;;22.85;11.43;;;;;;;22.10;36.51;98018.59;2073846;28;20084;-67
2024/01/18 00:33:13;;;;;;;22.02;11.73;;;;;;;22.03;36.22;98013.22;2082092;28;20974;-68
2024/01/18 00:34:15;;;;;;;20.52;11.73;;;;;;;21.97;36.02;98014.88;2098640;28;20146;-66
2024/01/18 00:35:17;;;;;;;26.85;12.18;;;;;;;21.89;35.76;98014.25;2081146;28;20084;-66
2024/01/18 00:36:18;;;;;;;21.60;11.55;;;;;;;21.83;35.63;98015.13;2065926;28;20868;-66
2024/01/18 00:37:20;;;;;;;22.77;12.05;;;;;;;21.74;35.50;98012.91;2073934;28;20049;-66
2024/01/18 00:38:24;;;;;;;25.58;12.48;;;;;;;21.67;35.25;98013.81;2082221;28;20034;-66
2024/01/18 00:39:25;;;;;;;24.13;11.80;;;;;;;21.60;35.38;98010.44;2082060;28;20869;-66
2024/01/18 00:40:27;;;;;;;23.65;11.93;;;;;;;21.53;35.13;98011.28;2074000;28;20041;-66
2024/01/18 00:41:32;;;;;;;21.10;12.10;;;;;;;21.45;35.13;98010.63;2066035;28;20023;-66
2024/01/18 00:42:33;;;;;;;24.15;12.02;;;;;;;21.40;34.95;98016.53;2075120;28;20140;-66
2024/01/18 00:43:35;;;;;;;26.13;12.23;;;;;;;21.33;34.91;98010.41;2073610;28;20140;-66
2024/01/18 00:44:37;;;;;;;24.23;12.68;;;;;;;21.27;34.71;98018.28;2074259;28;20129;-66
2024/01/18 00:45:39;;;;;;;22.90;12.60;;;;;;;21.22;34.63;98016.78;2081818;28;20081;-66
2024/01/18 00:46:40;;;;;;;23.13;12.55;;;;;;;21.16;34.56;98020.41;2082397;28;20050;-66
2024/01/18 00:47:42;;;;;;;26.30;11.93;;;;;;;21.10;34.72;98024.78;2074150;28;20038;-66
2024/01/18 00:48:49;;;;;;;21.25;12.38;;;;;;;21.03;34.54;98020.94;2082622;28;20030;-67
2024/01/18 00:49:53;;;;;;;22.38;11.73;;;;;;;20.98;34.51;98023.34;2091046;28;20053;-66
2024/01/18 00:50:55;;;;;;;26.10;11.98;;;;;;;20.93;34.49;98021.88;2081948;28;20060;-67
2024/01/18 00:51:57;;;;;;;23.83;12.45;;;;;;;20.88;34.33;98022.31;2082053;28;20168;-67
2024/01/18 00:52:58;;;;;;;25.10;12.70;;;;;;;20.82;34.21;98024.72;2090141;28;20030;-67
2024/01/18 00:54:02;;;;;;;25.48;12.85;;;;;;;20.78;34.17;98024.00;2082086;28;20026;-67
2024/01/18 00:55:07;;;;;;;24.02;12.63;;;;;;;20.74;34.32;98020.53;2082416;28;20105;-67
2024/01/18 00:56:10;;;;;;;28.42;13.45;;;;;;;20.70;34.19;98013.56;2066095;28;20153;-66
2024/01/18 00:57:13;;;;;;;24.30;12.63;;;;;;;20.66;34.28;98015.56;2074188;28;20949;-66
2024/01/18 00:58:14;;;;;;;21.60;11.68;;;;;;;20.61;34.00;98016.75;2082657;28;20022;-66
2024/01/18 00:59:16;;;;;;;23.73;13.02;;;;;;;20.58;34.03;98012.13;2082140;28;20841;-65
2024/01/18 01:00:18;;;;;;;25.73;13.02;;;;;;;20.53;34.02;98015.31;2065944;28;20034;-66
2024/01/18 01:01:19;;;;;;;26.63;13.85;;;;;;;20.50;33.80;98016.88;2074231;28;20027;-66
2024/01/18 01:02:21;;;;;;;27.60;13.60;;;;;;;20.45;33.83;98006.38;2082036;28;20029;-65
2024/01/18 01:03:23;;;;;;;24.42;12.93;;;;;;;20.40;33.86;98006.84;2073916;28;20136;-64
2024/01/18 01:04:24;;;;;;;23.65;12.55;;;;;;;20.38;33.82;98009.19;2065803;28;20043;-65
2024/01/18 01:05:26;;;;;;;21.92;12.02;;;;;;;20.34;33.77;98003.78;2073918;28;20136;-66
2024/01/18 01:06:27;;;;;;;24.75;12.98;;;;;;;20.31;33.74;98003.81;2073795;28;20050;-66
2024/01/18 01:07:29;;;;;;;24.85;12.32;;;;;;;20.28;33.92;98004.63;2065448;28;20510;-65
2024/01/18 01:08:31;;;;;;;21.90;12.35;;;;;;;20.25;33.78;98008.16;2088965;28;20144;-66
2024/01/18 01:09:32;;;;;;;24.70;12.35;;;;;;;20.23;33.69;98002.34;2081740;28;20098;-66
2024/01/18 01:10:34;;;;;;;23.35;12.18;;;;;;;20.19;33.63;98009.78;2074186;28;20081;-66
2024/01/18 01:11:36;;;;;;;27.42;13.98;;;;;;;20.17;33.72;98010.19;2081323;28;20159;-66
2024/01/18 01:12:39;;;;;;;24.55;13.00;;;;;;;20.13;33.46;98004.75;2081824;28;20030;-67
2024/01/18 01:13:42;;;;;;;22.48;12.88;;;;;;;20.10;33.61;98008.28;2074183;28;20222;-67
2024/01/18 01:14:44;;;;;;;23.52;13.32;;;;;;;20.07;33.52;98006.38;2090138;28;20037;-67
2024/01/18 01:15:46;;;;;;;23.58;12.98;;;;;;;20.03;33.58;98000.19;2089889;28;20018;-66
2024/01/18 01:16:48;;;;;;;25.23;13.05;;;;;;;20.02;33.39;98008.75;2089696;28;20056;-66
2024/01/18 01:17:49;;;;;;;23.40;12.70;;;;;;;19.99;33.46;98004.91;2081613;28;20030;-67
2024/01/18 01:18:51;;;;;;;24.95;12.82;;;;;;;19.97;33.45;98009.97;2090471;28;20037;-67
2024/01/18 01:19:55;;;;;;;21.40;12.52;;;;;;;19.95;33.42;98008.84;2088804;28;20153;-67
2024/01/18 01:20:56;;;;;;;24.10;12.32;;;;;;;19.93;33.43;98008.47;2082922;28;20022;-66
2024/01/18 01:21:58;;;;;;;26.23;12.93;;;;;;;19.89;33.33;98017.47;2090079;28;20120;-67
2024/01/18 01:23:01;;;;;;;24.52;12.82;;;;;;;19.87;33.34;98010.84;2081635;28;20030;-68
2024/01/18 01:24:03;;;;;;;25.90;12.38;;;;;;;19.85;33.26;98010.47;2066539;28;20041;-67
2024/01/18 01:25:07;;;;;;;24.60;12.73;;;;;;;19.82;33.39;98011.28;2090487;28;20033;-67
2024/01/18 01:26:09;;;;;;;25.58;12.60;;;;;;;19.81;33.37;98007.00;2089719;28;20107;-67
2024/01/18 01:27:10;;;;;;;24.45;12.52;;;;;;;19.79;33.37;98010.13;2082002;28;20079;-67
2024/01/18 01:28:12;;;;;;;25.88;12.15;;;;;;;19.78;33.27;98007.81;2081618;28;20958;-66
2024/01/18 01:29:15;;;;;;;24.77;12.80;;;;;;;19.75;33.29;98001.22;2074141;28;20035;-67
2024/01/18 01:30:17;;;;;;;21.83;12.50;;;;;;;19.73;33.22;98008.22;2081986;28;20046;-67
2024/01/18 01:31:18;;;;;;;25.48;12.32;;;;;;;19.72;33.37;98006.69;2074052;28;20853;-66
2024/01/18 01:32:20;;;;;;;28.08;12.38;;;;;;;19.70;33.24;98006.31;2088794;28;20060;-66
2024/01/18 01:33:22;;;;;;;24.90;12.70;;;;;;;19.67;33.27;97999.69;2089868;28;20148;-66
2024/01/18 01:34:23;;;;;;;24.52;12.02;;;;;;;19.66;33.43;98001.66;2082068;28;20100;-67
2024/01/18 01:35:27;;;;;;;22.80;11.75;;;;;;;19.65;33.32;97997.41;2089954;28;20111;-67
2024/01/18 01:36:28;;;;;;;23.63;12.93;;;;;;;19.64;33.26;98001.31;2081901;28;20094;-67
2024/01/18 01:37:30;;;;;;;25.92;12.65;;;;;;;19.62;33.34;98003.63;2090002;28;20030;-67
2024/01/18 01:38:31;;;;;;;25.05;12.40;;;;;;;19.61;33.13;98004.81;2089948;28;20037;-66
2024/01/18 01:39:33;;;;;;;25.30;12.88;;;;;;;19.60;33.21;98005.19;2090444;28;20128;-67
2024/01/18 01:40:34;;;;;;;26.40;12.90;;;;;;;19.58;33.17;98005.59;2081903;28;20080;-67
2024/01/18 01:41:36;;;;;;;24.52;13.13;;;;;;;19.57;33.21;98012.22;2082055;28;20038;-67
2024/01/18 01:42:38;;;;;;;23.23;12.35;;;;;;;19.54;33.13;98010.28;2090212;28;20038;-67
2024/01/18 01:43:55;;;;;;;23.17;12.15;;;;;;;19.54;33.21;98006.78;2090067;28;20133;-68
2024/01/18 01:44:57;;;;;;;21.60;12.73;;;;;;;19.52;33.09;98007.19;2083896;28;20147;-67
2024/01/18 01:45:59;;;;;;;26.45;12.82;;;;;;;19.50;33.00;98009.53;2081976;28;20041;-67
2024/01/18 01:47:01;;;;;;;23.35;12.57;;;;;;;19.50;33.09;98011.50;2089556;28;20168;-67
2024/01/18 01:48:06;;;;;;;23.27;12.07;;;;;;;19.48;33.17;98006.44;2090006;28;20030;-65
2024/01/18 01:49:09;;;;;;;26.02;12.80;;;;;;;19.48;33.03;98003.72;2082289;28;20797;-66
2024/01/18 01:50:10;;;;;;;23.67;12.18;;;;;;;19.45;33.18;98004.50;2090404;28;20069;-66
2024/01/18 01:51:12;;;;;;;23.15;12.10;;;;;;;19.45;32.93;98004.50;2097885;28;20041;-67
2024/01/18 01:52:15;;;;;;;22.23;12.13;;;;;;;19.44;33.09;98005.69;2098463;28;20029;-67
2024/01/18 01:53:18;;;;;;;24.65;12.18;;;;;;;19.44;32.99;98002.97;2098094;28;20875;-67
2024/01/18 01:54:20;;;;;;;23.85;11.85;;;;;;;19.43;33.00;98006.88;2098181;28;20041;-66
2024/01/18 01:55:22;;;;;;;22.25;11.30;;;;;;;19.42;32.81;98008.06;2097664;28;20147;-66
2024/01/18 01:56:24;;;;;;;21.80;11.73;;;;;;;19.39;32.86;98006.91;2081852;28;20073;-67
2024/01/18 01:57:27;;;;;;;22.73;12.02;;;;;;;19.38;32.96;98005.34;2065476;28;20115;-67
2024/01/18 01:58:29;;;;;;;21.70;11.73;;;;;;;19.37;32.91;98000.28;2066407;28;20042;-67
2024/01/18 01:59:33;;;;;;;23.38;12.82;;;;;;;19.37;32.90;98003.03;2090020;28;20104;-66
2024/01/18 02:00:35;;;;;;;22.38;12.30;;;;;;;19.36;32.82;98002.25;2098491;28;20075;-67
2024/01/18 02:01:39;;;;;;;24.65;12.80;;;;;;;19.35;32.82;97999.91;2081589;28;20030;-67
2024/01/18 02:02:42;;;;;;;23.55;11.95;;;;;;;19.34;32.93;98003.81;2082783;28;20108;-67
2024/01/18 02:03:43;;;;;;;22.92;12.00;;;;;;;19.33;33.00;98007.72;2089641;28;20032;-67
2024/01/18 02:04:45;;;;;;;20.73;11.90;;;;;;;19.33;33.01;98007.72;2073332;28;20893;-66
2024/01/18 02:05:47;;;;;;;27.20;13.43;;;;;;;19.31;33.09;98010.84;2065705;28;20994;-66
2024/01/18 02:06:52;;;;;;;24.23;12.45;;;;;;;19.31;32.98;98015.50;2073865;28;20112;-66
2024/01/18 02:07:54;;;;;;;21.10;11.45;;;;;;;19.30;33.03;98019.41;2074424;28;20232;-66
2024/01/18 02:08:56;;;;;;;24.70;12.38;;;;;;;19.30;32.93;98017.47;2073849;28;20074;-67
2024/01/18 02:09:57;;;;;;;23.30;12.43;;;;;;;19.29;32.91;98012.41;2081943;28;20014;-66
2024/01/18 02:11:00;;;;;;;21.98;12.27;;;;;;;19.28;32.92;98016.31;2090098;28;20037;-66
2024/01/18 02:12:06;;;;;;;23.90;12.80;;;;;;;19.26;32.78;98013.97;2090421;28;20855;-67
2024/01/18 02:13:09;;;;;;;21.98;11.63;;;;;;;19.26;32.73;98010.47;2090372;28;20868;-66
2024/01/18 02:14:11;;;;;;;22.10;11.93;;;;;;;19.25;32.81;98006.22;2089693;28;20041;-67
2024/01/18 02:15:13;;;;;;;21.25;12.13;;;;;;;19.25;32.72;98011.66;2098028;28;20132;-67
2024/01/18 02:16:15;;;;;;;23.52;12.38;;;;;;;19.24;32.64;98013.63;2097851;28;20806;-67
2024/01/18 02:17:18;;;;;;;24.67;12.73;;;;;;;19.22;32.73;98018.66;2089938;28;20089;-67
2024/01/18 02:18:23;;;;;;;24.23;12.73;;;;;;;19.20;32.75;98016.34;2090430;28;20034;-67
2024/01/18 02:19:25;;;;;;;23.13;12.00;;;;;;;19.20;32.76;98019.09;2089946;28;20888;-67
2024/01/18 02:20:26;;;;;;;24.48;12.00;;;;;;;19.19;32.78;98020.25;2073253;28;20027;-67
2024/01/18 02:21:28;;;;;;;23.50;11.82;;;;;;;19.19;32.70;98017.50;2073548;28;20031;-67
2024/01/18 02:22:40;;;;;;;22.77;11.90;;;;;;;19.18;32.72;98010.53;2082899;28;20042;-67
2024/01/18 02:23:43;;;;;;;22.05;12.07;;;;;;;19.17;32.75;98019.88;2091400;28;20034;-67
2024/01/18 02:24:58;;;;;;;22.13;11.60;;;;;;;19.16;32.67;98012.09;2089955;28;20042;-67
2024/01/18 02:26:01;;;;;;;20.45;11.65;;;;;;;19.16;32.49;98018.31;2091970;28;20046;-67
2024/01/18 02:27:03;;;;;;;24.95;12.27;;;;;;;19.14;32.46;98017.94;2081590;28;21270;-67
2024/01/18 02:28:07;;;;;;;23.73;12.77;;;;;;;19.13;32.39;98015.59;2082514;28;20018;-67
2024/01/18 02:29:08;;;;;;;22.77;12.02;;;;;;;19.11;32.51;98007.84;2090720;28;20037;-67
2024/01/18 02:30:10;;;;;;;21.67;12.50;;;;;;;19.12;32.58;98003.94;2089543;28;20026;-67
2024/01/18 02:31:13;;;;;;;21.95;11.88;;;;;;;19.12;32.46;98003.94;2081659;28;20899;-67
2024/01/18 02:32:14;;;;;;;24.02;12.18;;;;;;;19.10;32.51;98006.28;2079154;28;20148;-67
2024/01/18 02:33:18;;;;;;;19.70;11.35;;;;;;;19.10;32.56;98017.16;2081870;28;20044;-67
2024/01/18 02:34:20;;;;;;;23.35;12.68;;;;;;;19.10;32.42;98017.16;2089661;28;20025;-67
2024/01/18 02:35:22;;;;;;;22.23;11.05;;;;;;;19.09;32.50;98015.63;2089807;28;20096;-67
2024/01/18 02:36:24;;;;;;;20.05;11.18;;;;;;;19.09;32.41;98017.59;2090091;28;20265;-67
2024/01/18 02:37:25;;;;;;;21.23;11.88;;;;;;;19.08;32.53;98019.53;2081662;28;20980;-67
2024/01/18 02:38:27;;;;;;;24.00;11.23;;;;;;;19.08;32.50;98019.53;2081673;28;20857;-67
2024/01/18 02:39:28;;;;;;;22.75;12.15;;;;;;;19.07;32.41;98023.41;2073507;28;20973;-67
2024/01/18 02:40:30;;;;;;;23.77;11.73;;;;;;;19.07;32.40;98026.13;2073511;28;20768;-67
2024/01/18 02:41:32;;;;;;;19.55;11.77;;;;;;;19.07;32.29;98017.19;2081690;28;20033;-67
2024/01/18 02:42:34;;;;;;;21.65;11.98;;;;;;;19.05;32.42;98017.59;2073815;28;20042;-67
2024/01/18 02:43:38;;;;;;;25.05;12.27;;;;;;;19.05;32.39;98016.84;2073599;28;20035;-67
2024/01/18 02:44:44;;;;;;;24.48;11.75;;;;;;;19.05;32.27;98014.13;2082222;28;20589;-67
2024/01/18 02:45:46;;;;;;;24.75;12.10;;;;;;;19.03;32.29;98000.88;2073431;28;20078;-67
2024/01/18 02:46:48;;;;;;;23.98;12.27;;;;;;;19.02;32.31;98004.78;2073435;28;20038;-67
2024/01/18 02:47:49;;;;;;;24.42;12.00;;;;;;;19.03;32.52;98005.56;2081525;28;20022;-67
2024/01/18 02:48:52;;;;;;;22.42;11.55;;;;;;;19.01;32.24;98008.69;2081802;28;20034;-67
2024/01/18 02:49:55;;;;;;;19.88;10.95;;;;;;;19.01;32.33;98011.41;2081560;28;20183;-67
2024/01/18 02:50:56;;;;;;;22.77;12.20;;;;;;;19.00;32.24;98012.56;2073123;28;20754;-67
2024/01/18 02:51:59;;;;;;;21.38;11.23;;;;;;;18.99;32.30;98011.03;2081585;28;20108;-67
2024/01/18 02:53:04;;;;;;;23.50;12.60;;;;;;;18.99;32.23;98011.03;2081408;28;20033;-67
2024/01/18 02:54:05;;;;;;;22.02;12.05;;;;;;;18.99;32.13;98011.03;2073376;28;20124;-68
2024/01/18 02:55:10;;;;;;;24.45;12.30;;;;;;;18.98;32.25;98009.47;2065474;28;20081;-68
2024/01/18 02:56:12;;;;;;;23.42;12.15;;;;;;;18.98;32.31;98004.03;2073293;28;20994;-67
2024/01/18 02:57:13;;;;;;;24.13;12.27;;;;;;;18.96;32.32;98006.38;2073586;28;20026;-68
2024/01/18 02:58:15;;;;;;;21.92;11.70;;;;;;;18.96;32.29;98001.69;2081604;28;20856;-67
2024/01/18 02:59:17;;;;;;;23.42;11.00;;;;;;;18.96;32.22;98006.38;2082553;28;20080;-67
2024/01/18 03:00:19;;;;;;;21.27;11.90;;;;;;;18.95;32.22;98011.03;2090996;28;20033;-67
2024/01/18 03:01:20;;;;;;;21.17;11.95;;;;;;;18.95;32.19;98013.00;2082689;28;20184;-68
2024/01/18 03:02:22;;;;;;;23.35;12.25;;;;;;;18.94;32.14;98014.16;2082800;28;20046;-68
2024/01/18 03:03:25;;;;;;;22.40;11.15;;;;;;;18.94;32.16;98014.91;2091031;28;20041;-67
2024/01/18 03:04:27;;;;;;;22.67;11.55;;;;;;;18.93;32.14;98012.59;2083128;28;21234;-67
2024/01/18 03:05:29;;;;;;;20.95;10.80;;;;;;;18.92;32.20;98020.00;2074666;28;20873;-67
2024/01/18 03:06:32;;;;;;;20.10;11.60;;;;;;;18.92;32.26;98027.41;2082841;28;21011;-68
2024/01/18 03:07:34;;;;;;;21.75;11.80;;;;;;;18.92;32.20;98027.41;2082587;28;20081;-67
2024/01/18 03:08:36;;;;;;;19.05;11.13;;;;;;;18.90;32.19;98030.50;2082639;28;20890;-68
2024/01/18 03:09:39;;;;;;;22.73;11.65;;;;;;;18.90;32.20;98027.78;2082863;28;20046;-67
2024/01/18 03:10:41;;;;;;;24.05;11.57;;;;;;;18.90;32.27;98024.28;2082625;28;20156;-67
2024/01/18 03:11:44;;;;;;;21.95;11.77;;;;;;;18.89;32.22;98023.50;2074832;28;20030;-67
2024/01/18 03:12:46;;;;;;;22.10;12.23;;;;;;;18.89;32.18;98020.78;2090994;28;20235;-67
2024/01/18 03:13:49;;;;;;;19.70;11.35;;;;;;;18.88;32.28;98021.16;2090847;28;20022;-67
2024/01/18 03:14:50;;;;;;;22.35;11.40;;;;;;;18.88;32.26;98021.16;2090932;28;20104;-67
2024/01/18 03:15:52;;;;;;;19.65;10.88;;;;;;;18.88;32.20;98024.66;2083089;28;20860;-67
2024/01/18 03:16:57;;;;;;;22.95;11.80;;;;;;;18.87;32.13;98016.91;2074327;28;20120;-67
2024/01/18 03:17:59;;;;;;;20.15;10.95;;;;;;;18.87;32.27;98025.06;2083876;28;20112;-67
2024/01/18 03:19:03;;;;;;;20.95;10.93;;;;;;;18.86;32.10;98026.25;2099011;28;20021;-67
2024/01/18 03:20:08;;;;;;;23.15;11.23;;;;;;;18.86;32.11;98028.97;2074473;28;20804;-67
2024/01/18 03:21:10;;;;;;;21.52;11.05;;;;;;;18.86;32.13;98026.25;2075445;28;20053;-67
2024/01/18 03:22:12;;;;;;;19.10;10.98;;;;;;;18.86;32.18;98020.81;2090778;28;20033;-66
2024/01/18 03:23:15;;;;;;;20.77;11.85;;;;;;;18.85;32.11;98021.97;2074222;28;20109;-67
2024/01/18 03:24:18;;;;;;;22.90;12.43;;;;;;;18.85;32.19;98019.25;2083420;28;20061;-66
2024/01/18 03:25:20;;;;;;;19.70;11.23;;;;;;;18.83;32.09;98018.88;2098988;28;20095;-67
2024/01/18 03:26:22;;;;;;;21.30;11.23;;;;;;;18.83;32.11;98024.31;2082512;28;20014;-67
2024/01/18 03:27:23;;;;;;;23.23;11.45;;;;;;;18.82;32.21;98011.88;2082748;28;20049;-66
2024/01/18 03:28:25;;;;;;;22.10;12.52;;;;;;;18.82;32.13;98020.03;2082889;28;20072;-66
2024/01/18 03:29:27;;;;;;;25.60;12.88;;;;;;;18.81;32.21;98026.66;2074691;28;20046;-67
2024/01/18 03:30:29;;;;;;;20.65;11.50;;;;;;;18.81;32.18;98026.66;2074922;28;20037;-67
2024/01/18 03:31:30;;;;;;;23.75;11.65;;;;;;;18.81;32.18;98023.94;2082908;28;20030;-67
2024/01/18 03:32:31;;;;;;;23.05;11.88;;;;;;;18.79;32.08;98023.53;2074295;28;20022;-67
2024/01/18 03:33:33;;;;;;;18.95;10.88;;;;;;;18.80;32.22;98015.00;2057984;28;20027;-67
2024/01/18 03:34:37;;;;;;;24.17;12.00;;;;;;;18.78;32.14;98020.03;2083779;28;20837;-67
2024/01/18 03:35:39;;;;;;;22.58;11.93;;;;;;;18.79;32.03;98023.53;2098925;28;20040;-67
2024/01/18 03:36:43;;;;;;;21.80;11.57;;;;;;;18.79;32.19;98023.53;2091325;28;20037;-67
2024/01/18 03:37:48;;;;;;;23.67;11.60;;;;;;;18.79;32.25;98015.38;2082856;28;20061;-68
2024/01/18 03:38:50;;;;;;;22.42;11.07;;;;;;;18.78;32.34;98019.28;2083677;28;20033;-67
2024/01/18 03:39:51;;;;;;;20.33;11.15;;;;;;;18.78;32.19;98022.00;2090906;28;20041;-67
2024/01/18 03:40:53;;;;;;;20.20;10.90;;;;;;;18.77;32.23;98028.63;2091110;28;20025;-67
2024/01/18 03:41:54;;;;;;;21.80;10.80;;;;;;;18.77;32.25;98031.34;2090593;28;20079;-67
2024/01/18 03:42:56;;;;;;;20.48;11.07;;;;;;;18.77;32.26;98025.91;2082901;28;20909;-67
2024/01/18 03:43:58;;;;;;;20.35;10.50;;;;;;;18.75;32.17;98027.06;2082531;28;20112;-67
2024/01/18 03:45:01;;;;;;;20.10;10.95;;;;;;;18.75;32.13;98027.06;2082718;28;21368;-66
2024/01/18 03:46:03;;;;;;;19.00;9.85;;;;;;;18.77;32.27;98028.63;2074335;28;20072;-67
2024/01/18 03:47:08;;;;;;;19.23;10.10;;;;;;;18.78;32.57;98027.44;2083374;28;20136;-67
2024/01/18 03:48:14;;;;;;;17.88;9.13;;;;;;;18.81;32.77;98034.81;2082050;28;20115;-65
2024/01/18 03:49:16;;;;;;;19.40;9.15;;;;;;;18.85;32.62;98032.84;2075767;28;21282;-64
2024/01/18 03:50:17;;;;;;;16.13;8.70;;;;;;;18.88;33.09;98026.63;2099230;28;20033;-65
2024/01/18 03:51:19;;;;;;;14.45;8.13;;;;;;;18.92;33.28;98044.50;2098643;28;20091;-65
2024/01/18 03:52:21;;;;;;;17.42;8.48;;;;;;;18.97;33.26;98035.13;2090755;28;20041;-65
2024/01/18 03:53:26;;;;;;;13.77;7.25;;;;;;;19.02;33.54;98042.91;2098741;28;20020;-65
2024/01/18 03:54:29;;;;;;;14.85;7.03;;;;;;;19.07;33.65;98039.75;2091225;28;20829;-65
2024/01/18 03:55:30;;;;;;;13.38;7.57;;;;;;;19.13;33.66;98038.16;2090702;28;20765;-65
2024/01/18 03:56:32;;;;;;;12.18;6.95;;;;;;;19.18;33.79;98043.22;2082678;28;20076;-65
2024/01/18 03:57:35;;;;;;;15.55;7.63;;;;;;;19.24;33.80;98038.13;2082374;28;20049;-65
2024/01/18 03:58:37;;;;;;;15.82;7.75;;;;;;;19.30;34.02;98041.22;2066755;28;20047;-65
2024/01/18 03:59:38;;;;;;;14.43;7.82;;;;;;;19.36;34.17;98050.53;2082441;28;20132;-65
2024/01/18 04:00:42;;;;;;;14.30;7.70;;;;;;;19.41;34.17;98052.81;2082156;28;20864;-65
2024/01/18 04:01:44;;;;;;;15.18;8.68;;;;;;;19.47;34.14;98055.91;2090965;28;20034;-65
2024/01/18 04:02:45;;;;;;;16.25;8.02;;;;;;;19.52;34.25;98058.22;2098943;28;20029;-65
2024/01/18 04:03:48;;;;;;;18.13;8.43;;;;;;;19.56;34.46;98065.19;2099233;28;20037;-65
2024/01/18 04:04:53;;;;;;;16.75;8.20;;;;;;;19.60;34.42;98056.97;2090177;28;20037;-65
2024/01/18 04:05:56;;;;;;;15.77;8.60;;;;;;;19.64;34.56;98061.28;2091143;28;21186;-65
2024/01/18 04:06:58;;;;;;;16.55;8.52;;;;;;;19.70;34.51;98069.78;2099042;28;20041;-65
2024/01/18 04:08:00;;;;;;;15.20;8.05;;;;;;;19.75;34.66;98071.31;2090466;28;20132;-65
2024/01/18 04:09:02;;;;;;;14.90;8.23;;;;;;;19.79;34.82;98067.38;2090678;28;20991;-65
2024/01/18 04:10:03;;;;;;;14.88;7.72;;;;;;;19.84;34.74;98068.91;2099257;28;20036;-67
2024/01/18 04:11:06;;;;;;;16.45;8.35;;;;;;;19.87;34.97;98057.22;2090836;28;21273;-66
2024/01/18 04:12:08;;;;;;;14.55;7.90;;;;;;;19.92;34.90;98064.94;2082930;28;20125;-67
2024/01/18 04:13:10;;;;;;;13.30;7.32;;;;;;;19.96;35.05;98068.44;2082318;28;20038;-67
2024/01/18 04:14:12;;;;;;;15.07;8.32;;;;;;;19.99;35.06;98056.72;2090839;28;20148;-67
2024/01/18 04:15:14;;;;;;;13.63;7.57;;;;;;;20.04;35.01;98060.97;2098611;28;20025;-67
2024/01/18 04:16:18;;;;;;;12.07;6.57;;;;;;;20.07;35.15;98060.16;2082299;28;20115;-67
2024/01/18 04:17:19;;;;;;;15.95;7.82;;;;;;;20.10;35.30;98062.84;2081999;28;20120;-67
2024/01/18 04:18:21;;;;;;;12.70;7.13;;;;;;;20.14;35.19;98063.63;2091089;28;20275;-66
2024/01/18 04:19:23;;;;;;;13.18;6.90;;;;;;;20.18;35.29;98062.81;2090156;28;20034;-67
2024/01/18 04:20:27;;;;;;;14.95;7.78;;;;;;;20.21;35.46;98064.72;2065978;28;20793;-67
2024/01/18 04:21:29;;;;;;;12.68;7.20;;;;;;;20.25;35.36;98062.75;2067198;28;20050;-66
2024/01/18 04:22:30;;;;;;;13.25;7.07;;;;;;;20.28;35.41;98059.22;2074196;28;20027;-67
2024/01/18 04:23:32;;;;;;;12.13;6.60;;;;;;;20.30;35.65;98067.75;2074018;28;21027;-67
2024/01/18 04:24:34;;;;;;;14.95;7.43;;;;;;;20.34;35.43;98071.22;2074291;28;20038;-66
2024/01/18 04:25:36;;;;;;;11.98;6.65;;;;;;;20.36;35.66;98074.31;2082365;28;20844;-66
2024/01/18 04:26:39;;;;;;;11.13;6.43;;;;;;;20.39;35.64;98070.78;2082192;28;20042;-67
2024/01/18 04:27:47;;;;;;;12.98;6.82;;;;;;;20.41;35.86;98073.88;2083916;28;20034;-66
2024/01/18 04:28:49;;;;;;;14.38;7.28;;;;;;;20.46;35.81;98078.13;2082541;28;20033;-66
2024/01/18 04:29:50;;;;;;;12.45;6.93;;;;;;;20.48;35.81;98081.22;2090286;28;20028;-66
2024/01/18 04:30:52;;;;;;;9.63;5.70;;;;;;;20.50;35.83;98076.91;2090688;28;20878;-67
2024/01/18 04:31:54;;;;;;;11.30;6.78;;;;;;;20.52;35.80;98085.50;2085421;28;20106;-67
2024/01/18 04:32:58;;;;;;;12.85;6.72;;;;;;;20.55;35.84;98084.72;2090578;28;20029;-67
2024/01/18 04:34:00;;;;;;;10.15;6.20;;;;;;;20.57;35.94;98079.59;2090254;28;21260;-67
2024/01/18 04:35:02;;;;;;;16.05;6.40;;;;;;;20.60;36.02;98083.47;2090669;28;20136;-66
2024/01/18 04:36:05;;;;;;;10.60;5.57;;;;;;;20.63;36.04;98077.22;2082261;28;20026;-66
2024/01/18 04:37:06;;;;;;;11.32;6.00;;;;;;;20.63;35.98;98082.66;2057982;28;20819;-66
2024/01/18 04:38:08;;;;;;;13.20;6.20;;;;;;;20.66;36.20;98072.91;2057927;28;20074;-66
2024/01/18 04:39:10;;;;;;;10.18;5.47;;;;;;;20.69;36.26;98074.81;2082445;28;20128;-66
2024/01/18 04:40:16;;;;;;;13.07;6.30;;;;;;;20.71;36.22;98075.16;2074037;28;20159;-66
2024/01/18 04:41:18;;;;;;;8.77;5.53;;;;;;;20.73;36.05;98072.81;2082857;28;20467;-66
2024/01/18 04:42:20;;;;;;;10.30;5.80;;;;;;;20.74;36.32;98075.16;2090559;28;20038;-66
2024/01/18 04:43:22;;;;;;;9.23;5.70;;;;;;;20.77;36.21;98079.00;2090400;28;20041;-66
2024/01/18 04:44:24;;;;;;;12.07;6.18;;;;;;;20.77;36.27;98079.78;2082071;28;20038;-66
2024/01/18 04:45:26;;;;;;;8.85;5.15;;;;;;;20.80;36.10;98089.09;2066154;28;20121;-66
2024/01/18 04:46:27;;;;;;;9.98;5.45;;;;;;;20.81;36.33;98085.22;2066007;28;20023;-67
2024/01/18 04:47:29;;;;;;;10.20;5.30;;;;;;;20.83;36.25;98077.38;2082344;28;20034;-66
2024/01/18 04:48:32;;;;;;;9.23;4.90;;;;;;;20.84;36.38;98084.41;2074047;28;20073;-66